Time;durP1;ratioP1;P1;durP2;ratioP2;P2;SDS_P1;SDS_P2;PMS_P1;PMS_P2;Temp;Humidity;BMP_temperature;BMP_pressure;BME280_temperature;BME280_humidity;BME280_pressure;Samples;Min_cycle;Max_cycle;Signal;HPM_P1;HPM_P2
2022/12/06 00:01:06;;;;;;;48.33;28.50;;;;;;;9.23;100.00;100205.59;5113171;28;20198;-67
2022/12/06 00:03:33;;;;;;;51.30;29.07;;;;;;;9.16;100.00;100196.16;5112814;28;20194;-67
2022/12/06 00:06:02;;;;;;;53.90;28.37;;;;;;;9.17;100.00;100198.75;5112589;28;20191;-66
2022/12/06 00:08:29;;;;;;;60.13;29.60;;;;;;;9.22;100.00;100212.50;5112380;27;20626;-67
2022/12/06 00:10:56;;;;;;;57.00;29.10;;;;;;;9.30;100.00;100207.22;5112591;28;20194;-68
2022/12/06 00:13:23;;;;;;;57.83;28.17;;;;;;;9.35;100.00;100200.25;5112839;28;20203;-68
2022/12/06 00:15:50;;;;;;;62.73;29.53;;;;;;;9.41;100.00;100203.63;5113022;28;20191;-67
2022/12/06 00:18:18;;;;;;;59.07;29.90;;;;;;;9.43;100.00;100204.47;5112965;28;20670;-67
2022/12/06 00:20:45;;;;;;;55.67;31.27;;;;;;;9.47;100.00;100200.09;5112448;28;20230;-67
2022/12/06 00:23:12;;;;;;;58.87;30.80;;;;;;;9.46;100.00;100196.66;5113125;28;20711;-67
2022/12/06 00:25:39;;;;;;;56.93;30.00;;;;;;;9.45;100.00;100199.25;5112867;28;20194;-67
2022/12/06 00:28:05;;;;;;;60.80;33.03;;;;;;;9.44;100.00;100194.94;5112654;27;20200;-67
2022/12/06 00:30:32;;;;;;;64.97;32.40;;;;;;;9.44;100.00;100195.81;5112447;28;20195;-66
2022/12/06 00:32:59;;;;;;;59.37;31.63;;;;;;;9.45;100.00;100192.34;5112692;28;20199;-67
2022/12/06 00:35:27;;;;;;;59.97;32.07;;;;;;;9.34;100.00;100183.84;5112419;28;20197;-67
2022/12/06 00:37:54;;;;;;;60.60;31.10;;;;;;;9.40;100.00;100188.94;5112315;28;20240;-66
2022/12/06 00:40:21;;;;;;;61.27;30.27;;;;;;;9.39;100.00;100182.03;5112611;28;20198;-66
2022/12/06 00:42:48;;;;;;;51.40;29.20;;;;;;;9.42;100.00;100182.00;5112568;28;20205;-66
2022/12/06 00:45:15;;;;;;;56.57;29.60;;;;;;;9.46;100.00;100183.69;5112390;28;20675;-63
2022/12/06 00:47:42;;;;;;;54.07;28.60;;;;;;;9.46;100.00;100175.91;5112137;28;20654;-57
2022/12/06 00:50:10;;;;;;;55.20;30.73;;;;;;;9.40;100.00;100178.56;5112146;28;20190;-57
2022/12/06 00:52:38;;;;;;;53.70;30.10;;;;;;;9.39;100.00;100173.41;5112230;28;20918;-66
2022/12/06 00:55:06;;;;;;;57.77;30.50;;;;;;;9.39;100.00;100176.00;5111826;28;20313;-65
2022/12/06 00:57:33;;;;;;;57.07;30.73;;;;;;;9.48;100.00;100169.88;5111948;27;20232;-65
2022/12/06 01:00:00;;;;;;;57.10;30.07;;;;;;;9.52;100.00;100166.34;5112081;27;20197;-65
2022/12/06 01:02:26;;;;;;;58.73;29.03;;;;;;;9.48;100.00;100161.19;5112319;28;20646;-65
2022/12/06 01:04:53;;;;;;;53.57;29.57;;;;;;;9.50;100.00;100155.13;5112623;28;20194;-66
2022/12/06 01:07:20;;;;;;;59.43;31.13;;;;;;;9.46;100.00;100156.94;5111771;28;20506;-66
2022/12/06 01:09:48;;;;;;;65.97;30.33;;;;;;;9.45;100.00;100145.72;5111148;27;20194;-66
2022/12/06 01:12:15;;;;;;;55.73;29.23;;;;;;;9.42;100.00;100145.75;5111363;28;20291;-67
2022/12/06 01:14:42;;;;;;;58.37;30.17;;;;;;;9.44;100.00;100146.59;5111620;28;20582;-65
2022/12/06 01:17:09;;;;;;;58.30;29.93;;;;;;;9.30;100.00;100135.53;5111649;28;20592;-56
2022/12/06 01:19:36;;;;;;;56.67;30.13;;;;;;;9.28;100.00;100132.13;5111384;28;20229;-57
2022/12/06 01:22:03;;;;;;;55.07;30.07;;;;;;;9.29;100.00;100128.66;5111406;28;20199;-57
2022/12/06 01:24:30;;;;;;;62.23;31.57;;;;;;;9.31;100.00;100136.41;5111538;28;20220;-57
2022/12/06 01:26:58;;;;;;;60.60;31.33;;;;;;;9.28;100.00;100136.44;5111480;28;20194;-57
2022/12/06 01:29:25;;;;;;;62.67;31.23;;;;;;;9.27;100.00;100130.41;5111479;28;20198;-57
2022/12/06 01:31:52;;;;;;;67.57;32.87;;;;;;;9.28;100.00;100129.53;5111288;28;20688;-57
2022/12/06 01:34:19;;;;;;;77.57;34.10;;;;;;;9.25;100.00;100137.34;5111292;28;20229;-56
2022/12/06 01:36:46;;;;;;;72.40;33.87;;;;;;;9.17;100.00;100138.31;5111175;28;20201;-57
2022/12/06 01:39:13;;;;;;;70.10;32.80;;;;;;;9.17;100.00;100130.53;5111321;28;20222;-66
2022/12/06 01:41:39;;;;;;;61.77;33.43;;;;;;;9.12;100.00;100137.53;5111212;28;20587;-67
2022/12/06 01:44:38;;;;;;;64.93;32.50;;;;;;;9.10;100.00;100127.19;5111008;28;20205;-66
2022/12/06 01:47:08;;;;;;;70.93;32.13;;;;;;;9.10;100.00;100132.38;5111011;28;20203;-67
2022/12/06 01:49:35;;;;;;;68.73;31.80;;;;;;;9.13;100.00;100131.47;5111184;28;20424;-67
2022/12/06 01:52:05;;;;;;;63.33;31.57;;;;;;;9.13;100.00;100129.75;5111065;28;20663;-57
2022/12/06 01:54:32;;;;;;;52.77;28.90;;;;;;;9.12;100.00;100120.25;5111042;28;20205;-56
2022/12/06 01:57:04;;;;;;;60.10;30.30;;;;;;;9.18;100.00;100125.34;5110789;28;20194;-56
2022/12/06 01:59:33;;;;;;;60.33;30.93;;;;;;;9.10;100.00;100127.19;5110980;28;20607;-56
2022/12/06 02:02:00;;;;;;;58.80;31.53;;;;;;;9.13;100.00;100123.72;5110824;28;20202;-57
2022/12/06 02:04:28;;;;;;;63.57;32.97;;;;;;;9.09;100.00;100121.16;5111366;28;20588;-56
2022/12/06 02:06:57;;;;;;;56.90;31.50;;;;;;;9.08;100.00;100116.84;5110066;28;20579;-56
2022/12/06 02:09:26;;;;;;;56.77;30.40;;;;;;;9.05;100.00;100119.47;5110478;28;20729;-56
2022/12/06 02:11:53;;;;;;;57.37;29.90;;;;;;;9.10;100.00;100117.69;5110478;28;20199;-57
2022/12/06 02:14:24;;;;;;;63.90;31.10;;;;;;;9.11;100.00;100105.59;5110298;28;20194;-57
2022/12/06 02:17:13;;;;;;;56.80;30.03;;;;;;;9.12;100.00;100109.03;5110216;28;20202;-57
2022/12/06 02:20:03;;;;;;;57.23;30.43;;;;;;;9.07;100.00;100109.94;5109812;28;20611;-57
2022/12/06 02:22:49;;;;;;;58.97;31.20;;;;;;;8.98;100.00;100107.50;5109988;28;20198;-58
2022/12/06 02:25:44;;;;;;;58.33;29.70;;;;;;;9.12;100.00;100102.13;5110383;28;20198;-56
2022/12/06 02:29:01;;;;;;;64.40;29.77;;;;;;;8.97;100.00;100110.09;5106247;27;20578;-66
2022/12/06 02:31:37;;;;;;;60.00;29.87;;;;;;;9.14;100.00;100108.16;5105130;28;20653;-66
2022/12/06 02:34:12;;;;;;;60.83;30.20;;;;;;;9.23;100.00;100107.16;5110158;28;20201;-66
2022/12/06 02:36:46;;;;;;;54.33;30.33;;;;;;;9.30;100.00;100103.59;5110029;28;20195;-67
2022/12/06 02:39:19;;;;;;;57.20;29.53;;;;;;;9.31;100.00;100105.31;5110442;28;20338;-67
2022/12/06 02:41:56;;;;;;;57.30;29.43;;;;;;;9.40;100.00;100108.63;5110380;28;20680;-57
2022/12/06 02:44:28;;;;;;;58.63;31.07;;;;;;;9.46;100.00;100113.75;5110038;28;20208;-57
2022/12/06 02:47:01;;;;;;;53.40;29.97;;;;;;;9.50;100.00;100108.47;5109803;28;20216;-56
2022/12/06 02:49:32;;;;;;;59.13;30.60;;;;;;;9.48;100.00;100115.44;5110094;28;20197;-67
2022/12/06 02:51:59;;;;;;;55.87;29.77;;;;;;;9.40;100.00;100110.34;5110260;28;20628;-68
2022/12/06 02:54:28;;;;;;;57.33;31.03;;;;;;;9.42;100.00;100112.06;5109777;28;20204;-55
2022/12/06 02:56:56;;;;;;;57.80;31.87;;;;;;;9.48;100.00;100114.53;5109681;28;20194;-56
2022/12/06 02:59:22;;;;;;;57.20;32.00;;;;;;;9.39;100.00;100093.94;5109552;28;20309;-56
2022/12/06 03:01:52;;;;;;;68.27;31.33;;;;;;;9.45;100.00;100112.03;5109986;28;20221;-55
2022/12/06 03:04:47;;;;;;;61.73;31.57;;;;;;;9.41;100.00;100110.34;5106870;28;20205;-55
2022/12/06 03:07:35;;;;;;;61.87;32.87;;;;;;;9.48;100.00;100106.75;5089455;28;20585;-57
2022/12/06 03:10:26;;;;;;;51.03;30.63;;;;;;;9.54;100.00;100107.56;5089385;28;20279;-56
2022/12/06 03:13:04;;;;;;;64.07;32.60;;;;;;;9.55;100.00;100101.50;5088987;28;20210;-57
2022/12/06 03:15:44;;;;;;;65.97;32.97;;;;;;;9.42;100.00;100106.88;5089333;28;20194;-56
2022/12/06 03:18:18;;;;;;;64.27;32.73;;;;;;;9.38;100.00;100112.09;5088801;28;20683;-56
2022/12/06 03:20:51;;;;;;;63.17;33.33;;;;;;;9.43;100.00;100106.00;5088997;28;20231;-56
2022/12/06 03:23:23;;;;;;;59.30;33.33;;;;;;;9.44;100.00;100104.25;5089144;28;20203;-56
2022/12/06 03:25:51;;;;;;;64.47;33.40;;;;;;;9.49;100.00;100112.81;5089013;28;20195;-58
2022/12/06 03:28:21;;;;;;;60.57;32.63;;;;;;;9.46;100.00;100102.50;5088466;28;20226;-56
2022/12/06 03:30:52;;;;;;;61.80;32.00;;;;;;;9.44;100.00;100104.25;5088853;28;20730;-56
2022/12/06 03:33:23;;;;;;;59.90;32.43;;;;;;;9.33;100.00;100106.16;5088854;28;20199;-56
2022/12/06 03:35:54;;;;;;;56.73;31.07;;;;;;;9.34;100.00;100100.09;5088453;28;20266;-56
2022/12/06 03:38:26;;;;;;;59.63;31.37;;;;;;;9.30;100.00;100103.59;5088859;28;20226;-57
2022/12/06 03:40:57;;;;;;;62.13;31.30;;;;;;;9.33;100.00;100104.44;5088781;28;20278;-56
2022/12/06 03:43:24;;;;;;;59.27;32.37;;;;;;;9.34;100.00;100100.97;5089059;28;20675;-56
2022/12/06 03:45:55;;;;;;;58.60;31.00;;;;;;;9.30;100.00;100098.41;5088783;28;20199;-66
2022/12/06 03:48:26;;;;;;;65.77;31.13;;;;;;;9.33;100.00;100093.19;5088953;28;20195;-67
2022/12/06 03:51:01;;;;;;;59.27;32.67;;;;;;;9.34;100.00;100095.78;5088668;28;20290;-66
2022/12/06 03:53:28;;;;;;;68.67;31.93;;;;;;;9.32;100.00;100094.06;5088514;28;20207;-67
2022/12/06 03:55:55;;;;;;;58.90;31.77;;;;;;;9.25;100.00;100098.50;5088965;28;20195;-67
2022/12/06 03:58:22;;;;;;;57.87;33.07;;;;;;;9.22;100.00;100090.78;5088845;28;20248;-67
2022/12/06 04:00:49;;;;;;;60.77;32.50;;;;;;;9.24;100.00;100094.19;5088563;28;20199;-67
2022/12/06 04:03:15;;;;;;;67.70;32.13;;;;;;;9.20;100.00;100095.09;5088919;28;20213;-67
2022/12/06 04:05:42;;;;;;;61.53;32.90;;;;;;;9.15;100.00;100094.31;5089471;28;20286;-56
2022/12/06 04:08:11;;;;;;;75.27;35.03;;;;;;;9.19;100.00;100089.94;5090807;28;20201;-56
2022/12/06 04:10:38;;;;;;;64.10;33.10;;;;;;;9.20;100.00;100099.44;5109348;28;20626;-56
2022/12/06 04:13:05;;;;;;;67.63;34.13;;;;;;;9.20;100.00;100089.94;5109159;28;20286;-57
2022/12/06 04:15:34;;;;;;;72.93;34.33;;;;;;;9.23;100.00;100095.06;5109090;28;20636;-56
2022/12/06 04:18:12;;;;;;;61.87;34.20;;;;;;;9.20;100.00;100089.06;5108871;28;20195;-58
2022/12/06 04:23:45;;;;;;;68.03;35.20;;;;;;;9.29;100.00;100082.03;5095940;28;20218;-57
2022/12/06 04:26:14;;;;;;;71.63;35.77;;;;;;;9.24;100.00;100078.66;5098793;27;20215;-68
2022/12/06 04:39:41;;;;;;;71.97;36.63;;;;;;;9.25;100.00;100080.38;5104961;28;20253;-58
2022/12/06 04:44:52;;;;;;;67.07;36.70;;;;;;;9.09;100.00;100060.72;5109701;28;20755;-57
2022/12/06 04:47:19;;;;;;;74.77;36.73;;;;;;;9.19;100.00;100075.25;5118092;27;20218;-57
2022/12/06 04:49:46;;;;;;;66.33;35.90;;;;;;;9.19;100.00;100087.34;5119888;27;20209;-56
2022/12/06 04:52:13;;;;;;;78.20;37.80;;;;;;;9.13;100.00;100080.53;5118337;27;20222;-57
2022/12/06 04:54:42;;;;;;;69.43;35.80;;;;;;;8.92;100.00;100073.91;5113634;27;20230;-58
2022/12/06 04:57:11;;;;;;;71.40;36.50;;;;;;;8.90;100.00;100083.44;5110381;28;20704;-56
2022/12/06 04:59:39;;;;;;;66.53;35.53;;;;;;;8.95;100.00;100088.53;5111359;28;20721;-57
2022/12/06 05:02:08;;;;;;;65.10;34.67;;;;;;;8.96;100.00;100093.69;5111675;28;20204;-68
2022/12/06 05:04:36;;;;;;;60.60;32.30;;;;;;;9.01;100.00;100104.88;5111656;28;20203;-57
2022/12/06 05:07:03;;;;;;;59.40;31.93;;;;;;;8.89;100.00;100093.81;5111241;28;20201;-56
2022/12/06 05:09:30;;;;;;;62.40;31.83;;;;;;;8.82;100.00;100097.34;5111626;28;20197;-57
2022/12/06 05:11:58;;;;;;;53.23;30.00;;;;;;;8.80;100.00;100092.19;5112341;28;20210;-58
2022/12/06 05:14:25;;;;;;;57.80;30.57;;;;;;;8.79;100.00;100103.44;5111885;28;20226;-68
2022/12/06 05:16:57;;;;;;;60.33;33.30;;;;;;;8.82;100.00;100099.91;5110705;28;20199;-58
2022/12/06 05:19:24;;;;;;;53.23;30.53;;;;;;;8.80;100.00;100081.84;5112918;28;20309;-57
2022/12/06 05:21:52;;;;;;;61.23;31.93;;;;;;;8.91;100.00;100102.41;5110770;28;20206;-57
2022/12/06 05:24:19;;;;;;;52.47;29.90;;;;;;;8.99;100.00;100098.84;5111269;28;20662;-56
2022/12/06 05:26:46;;;;;;;60.27;29.60;;;;;;;9.03;100.00;100094.47;5111422;27;20259;-57
2022/12/06 05:29:15;;;;;;;52.63;30.20;;;;;;;8.92;100.00;100086.84;5111415;28;20195;-57
2022/12/06 05:31:41;;;;;;;53.50;29.83;;;;;;;8.97;100.00;100094.56;5110386;28;20201;-54
2022/12/06 05:34:10;;;;;;;59.92;35.00;;;;;;;8.81;100.00;100098.19;5110527;28;20446;-54
2022/12/06 05:36:37;;;;;;;49.50;29.20;;;;;;;8.86;100.00;100099.88;5109813;28;20244;-57
2022/12/06 05:39:04;;;;;;;50.73;27.87;;;;;;;8.80;100.00;100099.09;5110276;28;20214;-58
2022/12/06 05:41:31;;;;;;;50.07;27.20;;;;;;;8.90;100.00;100093.78;5109705;28;20662;-58
2022/12/06 05:43:57;;;;;;;46.53;27.47;;;;;;;8.89;100.00;100088.63;5109366;28;20201;-58
2022/12/06 05:46:26;;;;;;;47.77;27.03;;;;;;;8.89;100.00;100089.50;5110668;28;20199;-68
2022/12/06 05:48:53;;;;;;;48.37;27.30;;;;;;;8.89;100.00;100099.00;5111128;28;20191;-67
2022/12/06 05:51:20;;;;;;;49.47;26.73;;;;;;;8.92;100.00;100093.75;5111245;28;20206;-68
2022/12/06 05:53:47;;;;;;;44.70;25.93;;;;;;;8.94;100.00;100100.63;5118543;28;20726;-68
2022/12/06 05:56:14;;;;;;;42.10;24.93;;;;;;;8.94;100.00;100094.59;5118102;28;20199;-67
2022/12/06 05:58:41;;;;;;;44.37;25.07;;;;;;;8.99;100.00;100105.75;5119182;28;20246;-68
2022/12/06 06:01:08;;;;;;;43.20;25.07;;;;;;;9.06;100.00;100105.66;5113922;28;20261;-58
2022/12/06 06:03:38;;;;;;;48.93;25.50;;;;;;;8.83;100.00;100101.63;5111581;28;20512;-66
2022/12/06 06:06:05;;;;;;;43.60;25.60;;;;;;;8.87;100.00;100096.41;5117638;28;20249;-68
2022/12/06 06:08:32;;;;;;;44.87;26.17;;;;;;;8.80;100.00;100094.78;5114040;28;20190;-67
2022/12/06 06:11:00;;;;;;;51.43;26.13;;;;;;;8.76;100.00;100079.31;5110580;28;20316;-66
2022/12/06 06:13:27;;;;;;;48.33;26.90;;;;;;;8.88;100.00;100103.31;5110730;28;20186;-68
2022/12/06 06:15:53;;;;;;;49.93;27.23;;;;;;;8.94;100.00;100099.78;5110457;28;20204;-59
2022/12/06 06:18:20;;;;;;;48.93;25.90;;;;;;;8.91;100.00;100105.88;5104985;28;20223;-59
2022/12/06 06:20:53;;;;;;;53.20;27.83;;;;;;;8.99;100.00;100093.66;5089260;28;20235;-58
2022/12/06 06:23:21;;;;;;;52.73;27.47;;;;;;;9.09;100.00;100097.00;5089795;28;20711;-59
2022/12/06 06:25:48;;;;;;;50.87;28.30;;;;;;;9.09;100.00;100090.06;5088991;28;20713;-68
2022/12/06 06:28:15;;;;;;;48.60;27.13;;;;;;;9.10;100.00;100089.22;5089825;28;20285;-68
2022/12/06 06:30:42;;;;;;;53.63;26.73;;;;;;;9.22;100.00;100089.91;5089542;28;20222;-68
2022/12/06 06:33:10;;;;;;;53.50;27.67;;;;;;;9.21;100.00;100088.19;5103096;28;20218;-69
2022/12/06 06:35:38;;;;;;;54.50;27.93;;;;;;;9.16;100.00;100093.44;5108938;27;20198;-69
2022/12/06 06:38:06;;;;;;;53.67;30.20;;;;;;;9.15;100.00;100094.31;5109972;28;20198;-69
2022/12/06 06:40:34;;;;;;;46.83;27.30;;;;;;;9.07;100.00;100078.88;5110044;28;20219;-58
2022/12/06 06:43:16;;;;;;;52.70;28.27;;;;;;;9.09;100.00;100089.22;5110195;28;20191;-71
2022/12/06 06:45:45;;;;;;;53.30;27.20;;;;;;;9.19;100.00;100095.97;5110099;28;20198;-59
2022/12/06 06:48:13;;;;;;;47.53;27.53;;;;;;;9.23;100.00;100086.44;5110125;28;20195;-59
2022/12/06 06:50:40;;;;;;;56.63;28.50;;;;;;;9.19;100.00;100088.22;5109755;28;20226;-59
2022/12/06 06:53:08;;;;;;;54.70;28.97;;;;;;;9.34;100.00;100093.19;5109552;28;20195;-59
2022/12/06 06:55:36;;;;;;;49.27;28.70;;;;;;;9.33;100.00;100094.06;5109939;28;20205;-59
2022/12/06 06:58:04;;;;;;;55.23;27.60;;;;;;;9.41;100.00;100096.53;5109773;28;20194;-58
2022/12/06 07:00:31;;;;;;;53.47;30.13;;;;;;;9.45;100.00;100085.25;5109831;28;20724;-58
2022/12/06 07:02:57;;;;;;;57.87;29.50;;;;;;;9.60;100.00;100097.94;5109457;28;20224;-58
2022/12/06 07:05:24;;;;;;;57.43;31.23;;;;;;;9.65;100.00;100097.91;5109590;28;20201;-59
2022/12/06 07:07:51;;;;;;;54.63;31.53;;;;;;;9.64;100.00;100103.97;5109987;28;20226;-57
2022/12/06 07:10:20;;;;;;;55.63;30.33;;;;;;;9.64;100.00;100097.03;5109886;28;20194;-58
2022/12/06 07:12:47;;;;;;;58.17;30.73;;;;;;;9.58;100.00;100098.88;5109765;28;20562;-59
2022/12/06 07:15:14;;;;;;;57.93;30.03;;;;;;;9.70;100.00;100094.38;5109354;28;20241;-58
2022/12/06 07:17:41;;;;;;;58.00;30.63;;;;;;;9.81;100.00;100091.59;5109280;28;20199;-58
2022/12/06 07:20:09;;;;;;;57.90;29.60;;;;;;;9.70;100.00;100090.91;5109613;28;20607;-58
2022/12/06 07:22:36;;;;;;;58.53;29.33;;;;;;;9.76;100.00;100088.22;5109550;28;20199;-58
2022/12/06 07:25:03;;;;;;;61.33;30.77;;;;;;;9.79;100.00;100086.44;5109653;28;20662;-60
2022/12/06 07:27:34;;;;;;;60.73;31.90;;;;;;;9.91;100.00;100093.16;5109477;28;20201;-66
2022/12/06 07:30:01;;;;;;;58.70;30.30;;;;;;;10.01;100.00;100081.72;5109370;28;20281;-67
2022/12/06 07:32:28;;;;;;;69.43;32.03;;;;;;;10.00;100.00;100079.16;5109472;28;20231;-68
2022/12/06 07:34:55;;;;;;;65.20;30.33;;;;;;;10.01;100.00;100081.72;5109425;28;20206;-68
2022/12/06 07:37:22;;;;;;;62.50;32.17;;;;;;;10.13;100.00;100089.31;5109337;28;20198;-59
2022/12/06 07:39:49;;;;;;;56.03;30.63;;;;;;;10.18;100.00;100090.09;5109355;28;20225;-58
2022/12/06 07:45:02;;;;;;;65.07;32.20;;;;;;;10.42;100.00;100090.53;5109515;28;20193;-68
2022/12/06 07:47:32;;;;;;;56.10;30.57;;;;;;;10.54;100.00;100088.56;5109615;28;20198;-67
2022/12/06 07:49:59;;;;;;;61.27;32.50;;;;;;;10.64;100.00;100089.22;5109498;28;20198;-67
2022/12/06 07:52:29;;;;;;;65.17;32.13;;;;;;;10.69;100.00;100084.81;5109422;28;20695;-67
2022/12/06 07:54:56;;;;;;;62.47;31.43;;;;;;;10.81;100.00;100094.09;5109007;28;20690;-59
2022/12/06 07:57:23;;;;;;;56.27;30.57;;;;;;;10.91;100.00;100085.22;5108900;28;20737;-58
2022/12/06 07:59:50;;;;;;;64.50;32.50;;;;;;;11.06;100.00;100084.03;5109288;28;20728;-58
2022/12/06 08:02:21;;;;;;;63.73;29.23;;;;;;;11.10;100.00;100086.53;5109330;28;20575;-58
2022/12/06 08:04:48;;;;;;;56.77;30.90;;;;;;;11.12;100.00;100071.75;5110889;28;20221;-58
2022/12/06 08:07:15;;;;;;;65.87;32.30;;;;;;;11.32;100.00;100091.25;5113171;28;20194;-58
2022/12/06 08:09:42;;;;;;;64.80;32.13;;;;;;;11.42;100.00;100096.19;5103079;27;20219;-66
2022/12/06 08:12:09;;;;;;;58.97;32.70;;;;;;;11.53;100.00;100096.78;5092040;28;20235;-59
2022/12/06 08:14:37;;;;;;;66.30;35.97;;;;;;;11.44;100.00;100091.81;5092009;28;20223;-58
2022/12/06 08:17:05;;;;;;;82.47;42.40;;;;;;;11.35;100.00;100089.44;5091621;28;20227;-59
2022/12/06 08:19:34;;;;;;;87.07;41.47;;;;;;;11.55;100.00;100079.44;5108940;28;20229;-56
2022/12/06 08:22:01;;;;;;;112.67;54.83;;;;;;;11.54;100.00;100077.72;5109726;28;20227;-65
2022/12/06 08:24:27;;;;;;;76.90;43.57;;;;;;;11.46;100.00;100078.78;5112753;28;20306;-65
2022/12/06 08:26:55;;;;;;;71.83;36.43;;;;;;;11.43;100.00;100084.06;5112578;28;20255;-65
2022/12/06 08:29:23;;;;;;;69.73;37.60;;;;;;;11.28;100.00;100077.47;5113094;28;20243;-57
2022/12/06 08:31:49;;;;;;;83.87;40.37;;;;;;;11.47;100.00;100073.56;5113341;28;20194;-63
2022/12/06 08:34:16;;;;;;;68.60;38.83;;;;;;;11.42;100.00;100078.00;5113317;28;20613;-59
2022/12/06 08:36:45;;;;;;;72.00;38.43;;;;;;;11.58;100.00;100074.16;5113098;28;20704;-58
2022/12/06 08:39:12;;;;;;;77.43;40.40;;;;;;;11.58;100.00;100061.16;5113057;28;20199;-57
2022/12/06 08:41:58;;;;;;;69.33;38.20;;;;;;;11.62;100.00;100059.34;5113140;28;20295;-59
2022/12/06 08:44:26;;;;;;;80.10;40.63;;;;;;;11.56;100.00;100055.13;5113030;28;20686;-57
2022/12/06 08:46:54;;;;;;;94.47;49.23;;;;;;;11.61;100.00;100036.84;5113201;28;20199;-63
2022/12/06 08:49:21;;;;;;;110.73;53.60;;;;;;;11.75;100.00;100044.28;5113089;28;20646;-61
2022/12/06 08:51:49;;;;;;;152.33;66.60;;;;;;;11.69;100.00;100042.69;5113076;28;20201;-62
2022/12/06 08:54:20;;;;;;;94.60;47.40;;;;;;;11.67;100.00;100031.47;5112858;28;20207;-58
2022/12/06 08:56:47;;;;;;;107.00;50.47;;;;;;;11.63;100.00;100040.22;5112634;28;20195;-63
2022/12/06 08:59:14;;;;;;;82.63;42.00;;;;;;;11.70;100.00;100043.56;5112769;27;20671;-63
2022/12/06 09:01:41;;;;;;;106.93;51.70;;;;;;;11.52;100.00;100040.50;5112657;28;20290;-63
2022/12/06 09:04:10;;;;;;;73.40;36.50;;;;;;;11.57;100.00;100036.06;5112660;28;20585;-58
2022/12/06 09:06:39;;;;;;;73.80;40.37;;;;;;;11.39;100.00;100030.44;5112575;28;20205;-58
2022/12/06 09:09:09;;;;;;;65.53;34.53;;;;;;;11.34;100.00;100033.16;5112607;28;20199;-57
2022/12/06 09:11:36;;;;;;;72.90;36.83;;;;;;;11.42;100.00;100028.63;5112574;28;20210;-58
2022/12/06 09:14:03;;;;;;;68.17;35.93;;;;;;;11.44;100.00;100037.22;5112419;28;20195;-58
2022/12/06 09:16:30;;;;;;;59.23;31.70;;;;;;;11.41;100.00;100024.31;5112019;28;20194;-61
2022/12/06 09:18:57;;;;;;;65.07;32.20;;;;;;;11.47;100.00;100024.16;5112314;28;20224;-58
2022/12/06 09:21:27;;;;;;;67.77;34.37;;;;;;;11.37;100.00;100012.28;5112249;28;20702;-61
2022/12/06 09:23:55;;;;;;;74.33;37.63;;;;;;;11.38;100.00;100002.75;5112457;27;20355;-62
2022/12/06 09:26:24;;;;;;;63.10;34.03;;;;;;;11.39;100.00;100007.06;5112401;28;20209;-57
2022/12/06 09:28:53;;;;;;;64.77;35.00;;;;;;;11.43;100.00;100004.34;5111943;28;20195;-57
2022/12/06 09:31:20;;;;;;;54.10;31.10;;;;;;;11.42;100.00;100005.22;5112501;28;20191;-57
2022/12/06 09:33:47;;;;;;;62.90;34.23;;;;;;;11.39;100.00;100000.13;5112225;28;20194;-58
2022/12/06 09:36:20;;;;;;;60.70;34.37;;;;;;;11.42;100.00;100012.16;5112356;28;20569;-62
2022/12/06 09:38:49;;;;;;;75.90;39.33;;;;;;;11.42;100.00;100000.03;5112065;27;20194;-63
2022/12/06 09:41:32;;;;;;;65.40;32.97;;;;;;;11.56;100.00;99999.69;5111975;28;20229;-61
2022/12/06 09:44:13;;;;;;;59.57;31.97;;;;;;;11.43;100.00;100004.34;5111987;28;20202;-59
2022/12/06 09:46:56;;;;;;;63.20;34.27;;;;;;;11.49;100.00;99995.53;5111928;28;20205;-58
2022/12/06 09:49:32;;;;;;;52.90;30.70;;;;;;;11.61;100.00;99990.91;5111725;28;20289;-58
2022/12/06 09:52:21;;;;;;;64.53;31.00;;;;;;;11.52;100.00;99975.50;5111807;28;20194;-62
2022/12/06 09:55:29;;;;;;;57.80;29.57;;;;;;;11.44;100.00;99977.44;5111899;28;20194;-58
2022/12/06 09:58:07;;;;;;;57.17;31.27;;;;;;;11.53;100.00;99977.22;5074038;28;20218;-59
2022/12/06 10:00:41;;;;;;;52.10;29.83;;;;;;;11.58;100.00;99964.09;5111868;28;20605;-59
2022/12/06 10:03:47;;;;;;;51.90;29.60;;;;;;;11.58;100.00;99970.16;5111714;28;20194;-57
2022/12/06 10:06:16;;;;;;;48.77;27.87;;;;;;;11.60;100.00;99967.53;5111735;28;20595;-59
2022/12/06 10:09:06;;;;;;;59.83;30.33;;;;;;;11.42;100.00;99949.78;5111287;28;20191;-59
2022/12/06 10:11:51;;;;;;;63.20;30.40;;;;;;;11.57;100.00;99962.41;5111692;28;20601;-58
2022/12/06 10:14:36;;;;;;;49.87;28.00;;;;;;;11.38;100.00;99936.03;5111537;28;20206;-57
2022/12/06 10:17:12;;;;;;;68.63;33.50;;;;;;;11.40;100.00;99944.63;5111112;27;20204;-59
2022/12/06 10:19:52;;;;;;;57.73;31.50;;;;;;;11.39;100.00;99929.94;5110973;28;20294;-58
2022/12/06 10:22:30;;;;;;;45.17;26.23;;;;;;;11.41;100.00;99928.13;5111529;28;20198;-62
2022/12/06 10:25:07;;;;;;;49.77;28.30;;;;;;;11.41;100.00;99929.88;5111309;28;20204;-63
2022/12/06 10:27:38;;;;;;;47.60;27.50;;;;;;;11.32;100.00;99930.13;5110455;28;20630;-62
2022/12/06 10:30:11;;;;;;;51.43;27.40;;;;;;;11.17;100.00;99913.19;5110963;28;20216;-62
2022/12/06 10:32:51;;;;;;;51.80;28.07;;;;;;;11.34;100.00;99911.00;5111275;28;20201;-62
2022/12/06 10:35:30;;;;;;;57.40;32.43;;;;;;;11.42;100.00;99908.19;5111107;28;20206;-62
2022/12/06 10:38:06;;;;;;;59.37;30.67;;;;;;;11.48;100.00;99901.09;5110880;28;20222;-62
2022/12/06 10:40:44;;;;;;;47.17;26.73;;;;;;;11.22;100.00;99896.56;5111099;28;20305;-62
2022/12/06 10:43:18;;;;;;;51.83;27.70;;;;;;;11.14;100.00;99900.25;5110949;28;20220;-62
2022/12/06 10:48:55;;;;;;;69.33;32.30;;;;;;;11.09;100.00;99882.19;5109958;28;20291;-63
2022/12/06 10:51:30;;;;;;;62.67;31.83;;;;;;;11.06;100.00;99884.84;5110020;28;20662;-61
2022/12/06 10:54:03;;;;;;;65.50;34.07;;;;;;;11.10;100.00;99872.66;5109946;28;20206;-63
2022/12/06 10:56:36;;;;;;;63.63;33.47;;;;;;;11.22;100.00;99872.34;5110104;28;20202;-62
2022/12/06 10:59:11;;;;;;;61.67;33.70;;;;;;;11.20;100.00;99861.13;5110146;28;20205;-62
2022/12/06 11:01:42;;;;;;;61.70;31.80;;;;;;;11.34;100.00;99865.97;5110007;28;20717;-63
2022/12/06 11:04:12;;;;;;;61.50;33.80;;;;;;;11.41;100.00;99859.69;5109542;28;20204;-63
2022/12/06 11:06:44;;;;;;;63.90;32.83;;;;;;;11.37;100.00;99864.16;5109822;28;20208;-62
2022/12/06 11:09:20;;;;;;;70.67;34.57;;;;;;;11.28;100.00;99864.41;5109406;28;20565;-63
2022/12/06 11:11:50;;;;;;;73.83;38.17;;;;;;;11.33;100.00;99862.50;5109854;28;20190;-63
2022/12/06 11:14:24;;;;;;;72.13;32.53;;;;;;;11.33;100.00;99853.88;5109914;28;20228;-63
2022/12/06 11:16:58;;;;;;;62.97;31.70;;;;;;;11.15;100.00;99860.41;5109747;28;20723;-63
2022/12/06 11:19:32;;;;;;;59.53;30.30;;;;;;;11.13;100.00;99851.78;5109668;28;20190;-63
2022/12/06 11:22:04;;;;;;;61.53;31.93;;;;;;;11.17;100.00;99843.03;5109371;28;20631;-63
2022/12/06 11:24:35;;;;;;;73.47;35.27;;;;;;;11.25;100.00;99835.88;5109345;28;20194;-63
2022/12/06 11:27:09;;;;;;;65.73;33.07;;;;;;;11.42;100.00;99825.88;5109609;28;20201;-63
2022/12/06 11:29:36;;;;;;;51.20;27.57;;;;;;;11.34;100.00;99817.44;5109910;28;20216;-63
2022/12/06 11:32:07;;;;;;;54.37;27.87;;;;;;;11.37;100.00;99817.38;5109545;28;20199;-62
2022/12/06 11:34:40;;;;;;;48.13;26.27;;;;;;;11.27;100.00;99827.16;5109761;28;20282;-64
2022/12/06 11:37:12;;;;;;;53.63;27.23;;;;;;;11.38;100.00;99820.81;5109652;28;20202;-64
2022/12/06 11:39:40;;;;;;;55.23;28.33;;;;;;;11.34;100.00;99824.38;5112361;28;20220;-64
2022/12/06 11:42:08;;;;;;;61.47;30.97;;;;;;;11.37;100.00;99825.16;5111041;28;20889;-64
2022/12/06 11:44:40;;;;;;;56.57;29.67;;;;;;;11.38;100.00;99826.88;5101659;28;20203;-64